Terminal Aerodrome Forecast
Issued by NWS Topeka, KS

Home | Current Version | Previous Version | Text Only | Print | Product List | Glossary Off
Versions: 1 2 3 4 5 6 7 8 9 10 11 12 13 14 15 16 17

000
FTUS43 KTOP 270809 AAA
TAFTOP
TAF AMD
KTOP 270809Z 2708/2806 05005KT P6SM -SHRA SCT008 BKN025
     FM271000 36005KT 5SM BR OVC008
     FM271600 02010KT P6SM BKN020
     FM272100 02010KT P6SM SCT030=

USA.gov is the U.S. government's official web portal to all federal, state and local government web resources and services.